sensor_id;sensor_type;location;lat;lon;timestamp;P1;durP1;ratioP1;P2;durP2;ratioP2
19675;SDS011;39539;52.202;9.876;2023-07-31T07:32:22;10.02;;;9.15;;
19675;SDS011;39539;52.202;9.876;2023-07-31T07:34:56;10.25;;;9.23;;
19675;SDS011;39539;52.202;9.876;2023-07-31T07:37:22;13.95;;;12.82;;
19675;SDS011;39539;52.202;9.876;2023-07-31T07:39:54;10.75;;;9.65;;
19675;SDS011;39539;52.202;9.876;2023-07-31T07:42:35;10.23;;;8.88;;
19675;SDS011;39539;52.202;9.876;2023-07-31T07:45:00;9.95;;;8.88;;
19675;SDS011;39539;52.202;9.876;2023-07-31T07:47:25;9.50;;;8.60;;
19675;SDS011;39539;52.202;9.876;2023-07-31T07:49:51;8.70;;;7.90;;
19675;SDS011;39539;52.202;9.876;2023-07-31T07:52:16;9.25;;;7.88;;
19675;SDS011;39539;52.202;9.876;2023-07-31T07:54:42;9.00;;;8.10;;
19675;SDS011;39539;52.202;9.876;2023-07-31T07:57:07;9.60;;;8.55;;
19675;SDS011;39539;52.202;9.876;2023-07-31T07:59:34;10.10;;;8.25;;
19675;SDS011;39539;52.202;9.876;2023-07-31T08:02:00;8.13;;;7.30;;
19675;SDS011;39539;52.202;9.876;2023-07-31T08:04:25;8.40;;;7.28;;
19675;SDS011;39539;52.202;9.876;2023-07-31T08:06:51;8.05;;;7.22;;
19675;SDS011;39539;52.202;9.876;2023-07-31T08:09:16;9.32;;;8.15;;
19675;SDS011;39539;52.202;9.876;2023-07-31T08:11:43;10.93;;;7.38;;
19675;SDS011;39539;52.202;9.876;2023-07-31T08:14:08;10.90;;;8.27;;
19675;SDS011;39539;52.202;9.876;2023-07-31T08:16:34;9.52;;;8.02;;
19675;SDS011;39539;52.202;9.876;2023-07-31T08:18:59;8.43;;;7.60;;
19675;SDS011;39539;52.202;9.876;2023-07-31T08:21:25;10.80;;;9.10;;
19675;SDS011;39539;52.202;9.876;2023-07-31T08:23:53;8.90;;;8.07;;
19675;SDS011;39539;52.202;9.876;2023-07-31T08:26:20;10.57;;;7.93;;
19675;SDS011;39539;52.202;9.876;2023-07-31T08:28:46;8.80;;;7.90;;
19675;SDS011;39539;52.202;9.876;2023-07-31T08:31:12;8.52;;;7.63;;
19675;SDS011;39539;52.202;9.876;2023-07-31T08:33:38;8.77;;;7.88;;
19675;SDS011;39539;52.202;9.876;2023-07-31T08:36:04;10.00;;;7.85;;
19675;SDS011;39539;52.202;9.876;2023-07-31T08:38:30;8.75;;;7.60;;
19675;SDS011;39539;52.202;9.876;2023-07-31T08:40:58;7.57;;;6.88;;
19675;SDS011;39539;52.202;9.876;2023-07-31T08:43:25;8.38;;;7.43;;
19675;SDS011;39539;52.202;9.876;2023-07-31T08:45:51;7.97;;;7.18;;
19675;SDS011;39539;52.202;9.876;2023-07-31T08:48:17;9.00;;;7.78;;
19675;SDS011;39539;52.202;9.876;2023-07-31T08:50:44;7.30;;;6.55;;
19675;SDS011;39539;52.202;9.876;2023-07-31T08:53:10;7.35;;;6.43;;
19675;SDS011;39539;52.202;9.876;2023-07-31T08:55:36;7.32;;;6.07;;
19675;SDS011;39539;52.202;9.876;2023-07-31T08:58:03;6.78;;;6.15;;
19675;SDS011;39539;52.202;9.876;2023-07-31T09:00:31;6.80;;;6.20;;
19675;SDS011;39539;52.202;9.876;2023-07-31T09:02:59;6.72;;;6.10;;
19675;SDS011;39539;52.202;9.876;2023-07-31T09:05:28;8.90;;;8.05;;
19675;SDS011;39539;52.202;9.876;2023-07-31T09:07:56;5.75;;;5.20;;
19675;SDS011;39539;52.202;9.876;2023-07-31T09:10:22;5.22;;;4.65;;
19675;SDS011;39539;52.202;9.876;2023-07-31T09:12:50;5.10;;;4.70;;
19675;SDS011;39539;52.202;9.876;2023-07-31T09:18:02;3.95;;;3.40;;
19675;SDS011;39539;52.202;9.876;2023-07-31T09:20:32;3.67;;;3.38;;
19675;SDS011;39539;52.202;9.876;2023-07-31T09:23:05;3.15;;;2.90;;
19675;SDS011;39539;52.202;9.876;2023-07-31T09:25:35;2.92;;;2.72;;
19675;SDS011;39539;52.202;9.876;2023-07-31T09:28:04;2.83;;;2.63;;
19675;SDS011;39539;52.202;9.876;2023-07-31T09:30:43;2.92;;;2.72;;
19675;SDS011;39539;52.202;9.876;2023-07-31T09:33:10;2.80;;;2.50;;
19675;SDS011;39539;52.202;9.876;2023-07-31T09:35:36;2.30;;;2.10;;
19675;SDS011;39539;52.202;9.876;2023-07-31T09:38:10;2.70;;;2.08;;
19675;SDS011;39539;52.202;9.876;2023-07-31T09:40:40;4.63;;;3.92;;
19675;SDS011;39539;52.202;9.876;2023-07-31T09:43:08;3.35;;;3.05;;
19675;SDS011;39539;52.202;9.876;2023-07-31T09:45:39;3.75;;;2.65;;
19675;SDS011;39539;52.202;9.876;2023-07-31T09:48:13;4.32;;;3.38;;
19675;SDS011;39539;52.202;9.876;2023-07-31T09:50:46;3.25;;;2.95;;
19675;SDS011;39539;52.202;9.876;2023-07-31T09:53:14;3.17;;;2.88;;
19675;SDS011;39539;52.202;9.876;2023-07-31T09:55:42;3.67;;;2.90;;
19675;SDS011;39539;52.202;9.876;2023-07-31T09:58:13;4.13;;;3.50;;
19675;SDS011;39539;52.202;9.876;2023-07-31T10:00:39;4.78;;;3.20;;
19675;SDS011;39539;52.202;9.876;2023-07-31T10:03:08;3.10;;;2.90;;
19675;SDS011;39539;52.202;9.876;2023-07-31T10:06:08;3.97;;;3.60;;
19675;SDS011;39539;52.202;9.876;2023-07-31T10:08:28;3.20;;;3.00;;
19675;SDS011;39539;52.202;9.876;2023-07-31T10:10:57;3.53;;;3.22;;
19675;SDS011;39539;52.202;9.876;2023-07-31T10:13:29;3.45;;;3.20;;
19675;SDS011;39539;52.202;9.876;2023-07-31T10:15:58;4.43;;;3.15;;
19675;SDS011;39539;52.202;9.876;2023-07-31T10:18:25;3.60;;;3.30;;
19675;SDS011;39539;52.202;9.876;2023-07-31T10:20:53;3.33;;;3.13;;
19675;SDS011;39539;52.202;9.876;2023-07-31T10:23:22;3.45;;;3.10;;
19675;SDS011;39539;52.202;9.876;2023-07-31T10:25:51;3.35;;;3.05;;
19675;SDS011;39539;52.202;9.876;2023-07-31T10:28:23;4.05;;;3.75;;
19675;SDS011;39539;52.202;9.876;2023-07-31T10:31:02;3.83;;;3.53;;
19675;SDS011;39539;52.202;9.876;2023-07-31T10:33:29;3.70;;;3.40;;
19675;SDS011;39539;52.202;9.876;2023-07-31T10:36:14;3.40;;;3.10;;
19675;SDS011;39539;52.202;9.876;2023-07-31T10:38:46;3.33;;;3.13;;
19675;SDS011;39539;52.202;9.876;2023-07-31T10:41:14;4.00;;;3.17;;
19675;SDS011;39539;52.202;9.876;2023-07-31T10:43:42;3.05;;;2.85;;
19675;SDS011;39539;52.202;9.876;2023-07-31T10:46:15;3.58;;;3.28;;
19675;SDS011;39539;52.202;9.876;2023-07-31T10:48:41;3.00;;;2.70;;
19675;SDS011;39539;52.202;9.876;2023-07-31T10:51:13;4.30;;;2.65;;
19675;SDS011;39539;52.202;9.876;2023-07-31T10:53:39;3.30;;;3.00;;
19675;SDS011;39539;52.202;9.876;2023-07-31T10:56:06;2.72;;;2.53;;
19675;SDS011;39539;52.202;9.876;2023-07-31T10:58:34;3.38;;;2.50;;
19675;SDS011;39539;52.202;9.876;2023-07-31T11:01:02;2.63;;;2.42;;
19675;SDS011;39539;52.202;9.876;2023-07-31T11:06:15;3.67;;;3.38;;
19675;SDS011;39539;52.202;9.876;2023-07-31T11:08:42;2.60;;;2.40;;
19675;SDS011;39539;52.202;9.876;2023-07-31T11:11:10;3.40;;;2.60;;
19675;SDS011;39539;52.202;9.876;2023-07-31T11:16:15;2.47;;;2.20;;
19675;SDS011;39539;52.202;9.876;2023-07-31T11:18:43;2.53;;;2.38;;
19675;SDS011;39539;52.202;9.876;2023-07-31T11:21:13;2.40;;;2.20;;
19675;SDS011;39539;52.202;9.876;2023-07-31T11:23:40;2.30;;;2.10;;
19675;SDS011;39539;52.202;9.876;2023-07-31T11:26:11;2.50;;;2.30;;
19675;SDS011;39539;52.202;9.876;2023-07-31T11:28:37;2.63;;;2.42;;
19675;SDS011;39539;52.202;9.876;2023-07-31T11:31:03;4.70;;;2.38;;
19675;SDS011;39539;52.202;9.876;2023-07-31T11:33:29;2.88;;;2.67;;
19675;SDS011;39539;52.202;9.876;2023-07-31T11:35:55;2.47;;;2.20;;
19675;SDS011;39539;52.202;9.876;2023-07-31T11:38:24;2.97;;;2.20;;
19675;SDS011;39539;52.202;9.876;2023-07-31T11:40:54;2.70;;;2.50;;
19675;SDS011;39539;52.202;9.876;2023-07-31T11:43:24;2.53;;;2.33;;
19675;SDS011;39539;52.202;9.876;2023-07-31T11:45:53;2.08;;;1.98;;
19675;SDS011;39539;52.202;9.876;2023-07-31T11:48:31;2.30;;;2.10;;
19675;SDS011;39539;52.202;9.876;2023-07-31T11:51:00;2.20;;;2.00;;
19675;SDS011;39539;52.202;9.876;2023-07-31T11:53:38;3.03;;;2.40;;
19675;SDS011;39539;52.202;9.876;2023-07-31T11:56:10;2.08;;;1.98;;
19675;SDS011;39539;52.202;9.876;2023-07-31T11:58:41;2.25;;;1.80;;
19675;SDS011;39539;52.202;9.876;2023-07-31T12:01:09;2.13;;;1.95;;
19675;SDS011;39539;52.202;9.876;2023-07-31T12:03:35;1.98;;;1.60;;
19675;SDS011;39539;52.202;9.876;2023-07-31T12:06:02;1.83;;;1.73;;
19675;SDS011;39539;52.202;9.876;2023-07-31T12:08:29;2.70;;;1.83;;
19675;SDS011;39539;52.202;9.876;2023-07-31T12:11:01;3.75;;;2.10;;
19675;SDS011;39539;52.202;9.876;2023-07-31T12:13:31;1.88;;;1.77;;
19675;SDS011;39539;52.202;9.876;2023-07-31T12:16:01;2.17;;;2.00;;
19675;SDS011;39539;52.202;9.876;2023-07-31T12:18:31;2.13;;;1.98;;
19675;SDS011;39539;52.202;9.876;2023-07-31T12:21:04;2.38;;;2.20;;
19675;SDS011;39539;52.202;9.876;2023-07-31T12:23:34;2.45;;;2.25;;
19675;SDS011;39539;52.202;9.876;2023-07-31T12:26:16;2.90;;;2.20;;
19675;SDS011;39539;52.202;9.876;2023-07-31T12:28:46;1.75;;;1.65;;
19675;SDS011;39539;52.202;9.876;2023-07-31T12:31:16;2.25;;;2.00;;
19675;SDS011;39539;52.202;9.876;2023-07-31T12:33:47;2.30;;;2.10;;
19675;SDS011;39539;52.202;9.876;2023-07-31T12:36:21;1.77;;;1.67;;
19675;SDS011;39539;52.202;9.876;2023-07-31T12:38:48;2.05;;;1.90;;
19675;SDS011;39539;52.202;9.876;2023-07-31T12:41:16;1.88;;;1.58;;
19675;SDS011;39539;52.202;9.876;2023-07-31T12:43:43;2.35;;;2.15;;
19675;SDS011;39539;52.202;9.876;2023-07-31T12:46:09;2.67;;;2.20;;
19675;SDS011;39539;52.202;9.876;2023-07-31T12:48:36;1.90;;;1.70;;
19675;SDS011;39539;52.202;9.876;2023-07-31T12:51:04;2.05;;;1.60;;
19675;SDS011;39539;52.202;9.876;2023-07-31T12:53:32;1.50;;;1.40;;
19675;SDS011;39539;52.202;9.876;2023-07-31T12:55:58;1.40;;;1.30;;
19675;SDS011;39539;52.202;9.876;2023-07-31T12:58:24;1.52;;;1.23;;
19675;SDS011;39539;52.202;9.876;2023-07-31T13:00:50;1.15;;;1.05;;
19675;SDS011;39539;52.202;9.876;2023-07-31T13:03:18;1.20;;;1.10;;
19675;SDS011;39539;52.202;9.876;2023-07-31T13:05:44;0.95;;;0.93;;
19675;SDS011;39539;52.202;9.876;2023-07-31T13:08:09;0.90;;;0.70;;
19675;SDS011;39539;52.202;9.876;2023-07-31T13:10:44;1.10;;;0.70;;
19675;SDS011;39539;52.202;9.876;2023-07-31T13:13:10;0.80;;;0.80;;
19675;SDS011;39539;52.202;9.876;2023-07-31T13:15:35;0.60;;;0.60;;
19675;SDS011;39539;52.202;9.876;2023-07-31T13:18:00;2.28;;;1.55;;
19675;SDS011;39539;52.202;9.876;2023-07-31T13:20:26;1.55;;;0.93;;
19675;SDS011;39539;52.202;9.876;2023-07-31T13:22:52;0.80;;;0.73;;
19675;SDS011;39539;52.202;9.876;2023-07-31T13:25:17;0.50;;;0.50;;
19675;SDS011;39539;52.202;9.876;2023-07-31T13:27:44;0.65;;;0.60;;
19675;SDS011;39539;52.202;9.876;2023-07-31T13:30:09;1.60;;;0.70;;
19675;SDS011;39539;52.202;9.876;2023-07-31T13:32:35;0.60;;;0.60;;
19675;SDS011;39539;52.202;9.876;2023-07-31T13:35:06;0.95;;;0.57;;
19675;SDS011;39539;52.202;9.876;2023-07-31T13:37:33;0.60;;;0.60;;
19675;SDS011;39539;52.202;9.876;2023-07-31T13:39:59;0.50;;;0.50;;
19675;SDS011;39539;52.202;9.876;2023-07-31T13:42:29;0.70;;;0.70;;
19675;SDS011;39539;52.202;9.876;2023-07-31T13:44:55;1.30;;;0.47;;
19675;SDS011;39539;52.202;9.876;2023-07-31T13:47:21;1.55;;;0.73;;
19675;SDS011;39539;52.202;9.876;2023-07-31T13:49:47;0.50;;;0.50;;
19675;SDS011;39539;52.202;9.876;2023-07-31T13:52:12;0.47;;;0.47;;
19675;SDS011;39539;52.202;9.876;2023-07-31T13:54:38;0.40;;;0.40;;
19675;SDS011;39539;52.202;9.876;2023-07-31T13:57:03;0.55;;;0.50;;
19675;SDS011;39539;52.202;9.876;2023-07-31T13:59:29;0.70;;;0.60;;
19675;SDS011;39539;52.202;9.876;2023-07-31T14:01:55;1.55;;;0.60;;
19675;SDS011;39539;52.202;9.876;2023-07-31T14:04:20;1.15;;;0.50;;
19675;SDS011;39539;52.202;9.876;2023-07-31T14:06:45;0.60;;;0.60;;
19675;SDS011;39539;52.202;9.876;2023-07-31T14:09:13;0.60;;;0.60;;
19675;SDS011;39539;52.202;9.876;2023-07-31T14:11:39;1.33;;;0.50;;
19675;SDS011;39539;52.202;9.876;2023-07-31T14:14:04;0.70;;;0.50;;
19675;SDS011;39539;52.202;9.876;2023-07-31T14:16:30;0.47;;;0.47;;
19675;SDS011;39539;52.202;9.876;2023-07-31T14:18:55;0.60;;;0.60;;
19675;SDS011;39539;52.202;9.876;2023-07-31T14:21:21;0.88;;;0.60;;
19675;SDS011;39539;52.202;9.876;2023-07-31T14:23:46;1.05;;;0.55;;
19675;SDS011;39539;52.202;9.876;2023-07-31T14:26:12;0.63;;;0.63;;
19675;SDS011;39539;52.202;9.876;2023-07-31T14:28:37;0.55;;;0.55;;
19675;SDS011;39539;52.202;9.876;2023-07-31T14:31:03;0.80;;;0.47;;
19675;SDS011;39539;52.202;9.876;2023-07-31T14:33:28;1.17;;;0.60;;
19675;SDS011;39539;52.202;9.876;2023-07-31T14:35:54;1.10;;;0.52;;
19675;SDS011;39539;52.202;9.876;2023-07-31T14:38:19;0.50;;;0.50;;
19675;SDS011;39539;52.202;9.876;2023-07-31T14:40:45;1.00;;;0.70;;
19675;SDS011;39539;52.202;9.876;2023-07-31T14:43:11;0.70;;;0.70;;
19675;SDS011;39539;52.202;9.876;2023-07-31T14:45:36;0.80;;;0.80;;
19675;SDS011;39539;52.202;9.876;2023-07-31T14:48:02;0.90;;;0.88;;
19675;SDS011;39539;52.202;9.876;2023-07-31T14:50:28;1.35;;;1.05;;
19675;SDS011;39539;52.202;9.876;2023-07-31T14:52:53;1.75;;;1.38;;
19675;SDS011;39539;52.202;9.876;2023-07-31T14:55:19;1.48;;;1.17;;
19675;SDS011;39539;52.202;9.876;2023-07-31T14:57:44;1.20;;;1.10;;
19675;SDS011;39539;52.202;9.876;2023-07-31T15:00:10;1.20;;;1.20;;
19675;SDS011;39539;52.202;9.876;2023-07-31T15:02:36;1.35;;;1.23;;
19675;SDS011;39539;52.202;9.876;2023-07-31T15:05:02;1.27;;;1.15;;
19675;SDS011;39539;52.202;9.876;2023-07-31T15:07:29;1.08;;;1.08;;
19675;SDS011;39539;52.202;9.876;2023-07-31T15:09:54;0.93;;;0.93;;
19675;SDS011;39539;52.202;9.876;2023-07-31T15:12:19;1.40;;;1.30;;
19675;SDS011;39539;52.202;9.876;2023-07-31T15:14:45;1.17;;;1.02;;
19675;SDS011;39539;52.202;9.876;2023-07-31T15:17:10;1.17;;;1.17;;
19675;SDS011;39539;52.202;9.876;2023-07-31T15:19:36;1.75;;;1.30;;
19675;SDS011;39539;52.202;9.876;2023-07-31T15:22:05;1.20;;;1.20;;
19675;SDS011;39539;52.202;9.876;2023-07-31T15:24:31;1.95;;;1.30;;
19675;SDS011;39539;52.202;9.876;2023-07-31T15:26:56;1.98;;;1.13;;
19675;SDS011;39539;52.202;9.876;2023-07-31T15:29:22;1.30;;;1.20;;
19675;SDS011;39539;52.202;9.876;2023-07-31T15:31:47;1.67;;;1.58;;
19675;SDS011;39539;52.202;9.876;2023-07-31T15:34:13;1.58;;;1.20;;
19675;SDS011;39539;52.202;9.876;2023-07-31T15:36:39;1.35;;;1.25;;
19675;SDS011;39539;52.202;9.876;2023-07-31T15:39:05;1.52;;;1.42;;
19675;SDS011;39539;52.202;9.876;2023-07-31T15:41:33;1.45;;;1.30;;
19675;SDS011;39539;52.202;9.876;2023-07-31T15:44:06;2.03;;;1.38;;
19675;SDS011;39539;52.202;9.876;2023-07-31T15:46:32;1.35;;;1.25;;
19675;SDS011;39539;52.202;9.876;2023-07-31T15:49:06;1.27;;;1.17;;
19675;SDS011;39539;52.202;9.876;2023-07-31T15:51:33;1.40;;;1.17;;
19675;SDS011;39539;52.202;9.876;2023-07-31T15:54:02;1.45;;;1.40;;
19675;SDS011;39539;52.202;9.876;2023-07-31T15:56:28;1.40;;;1.30;;
19675;SDS011;39539;52.202;9.876;2023-07-31T15:58:57;1.60;;;1.50;;
19675;SDS011;39539;52.202;9.876;2023-07-31T16:01:32;1.52;;;1.33;;
19675;SDS011;39539;52.202;9.876;2023-07-31T16:03:58;1.80;;;1.60;;
19675;SDS011;39539;52.202;9.876;2023-07-31T16:06:26;1.98;;;1.30;;
19675;SDS011;39539;52.202;9.876;2023-07-31T16:09:01;1.10;;;1.10;;
19675;SDS011;39539;52.202;9.876;2023-07-31T16:11:28;0.90;;;0.90;;
19675;SDS011;39539;52.202;9.876;2023-07-31T16:13:54;1.42;;;0.88;;
19675;SDS011;39539;52.202;9.876;2023-07-31T16:16:20;0.88;;;0.88;;
19675;SDS011;39539;52.202;9.876;2023-07-31T16:18:49;1.60;;;1.25;;
19675;SDS011;39539;52.202;9.876;2023-07-31T16:21:14;1.38;;;1.20;;
19675;SDS011;39539;52.202;9.876;2023-07-31T16:23:43;1.30;;;1.20;;
19675;SDS011;39539;52.202;9.876;2023-07-31T16:26:08;1.20;;;1.10;;
19675;SDS011;39539;52.202;9.876;2023-07-31T16:28:36;1.48;;;1.13;;
19675;SDS011;39539;52.202;9.876;2023-07-31T16:31:08;1.33;;;1.00;;
19675;SDS011;39539;52.202;9.876;2023-07-31T16:33:34;1.20;;;1.10;;
19675;SDS011;39539;52.202;9.876;2023-07-31T16:36:08;1.25;;;1.15;;
19675;SDS011;39539;52.202;9.876;2023-07-31T16:38:37;1.17;;;0.98;;
19675;SDS011;39539;52.202;9.876;2023-07-31T16:41:11;1.30;;;1.08;;
19675;SDS011;39539;52.202;9.876;2023-07-31T16:43:38;1.20;;;1.10;;
19675;SDS011;39539;52.202;9.876;2023-07-31T16:46:05;1.40;;;1.30;;
19675;SDS011;39539;52.202;9.876;2023-07-31T16:48:32;1.25;;;1.15;;
19675;SDS011;39539;52.202;9.876;2023-07-31T16:50:59;0.90;;;0.90;;
19675;SDS011;39539;52.202;9.876;2023-07-31T16:53:26;1.20;;;1.02;;
19675;SDS011;39539;52.202;9.876;2023-07-31T16:56:03;1.48;;;1.20;;
19675;SDS011;39539;52.202;9.876;2023-07-31T16:58:30;2.10;;;1.05;;
19675;SDS011;39539;52.202;9.876;2023-07-31T17:01:05;1.40;;;1.30;;
19675;SDS011;39539;52.202;9.876;2023-07-31T17:03:30;1.23;;;1.20;;
19675;SDS011;39539;52.202;9.876;2023-07-31T17:06:08;1.10;;;1.10;;
19675;SDS011;39539;52.202;9.876;2023-07-31T17:08:34;1.33;;;1.23;;
19675;SDS011;39539;52.202;9.876;2023-07-31T17:11:01;1.50;;;1.40;;
19675;SDS011;39539;52.202;9.876;2023-07-31T17:13:27;1.50;;;1.40;;
19675;SDS011;39539;52.202;9.876;2023-07-31T17:15:53;1.75;;;1.50;;
19675;SDS011;39539;52.202;9.876;2023-07-31T17:18:20;1.58;;;1.48;;
19675;SDS011;39539;52.202;9.876;2023-07-31T17:20:45;2.22;;;1.70;;
19675;SDS011;39539;52.202;9.876;2023-07-31T17:23:12;1.70;;;1.60;;
19675;SDS011;39539;52.202;9.876;2023-07-31T17:25:38;1.67;;;1.58;;
19675;SDS011;39539;52.202;9.876;2023-07-31T17:28:06;1.73;;;1.60;;
19675;SDS011;39539;52.202;9.876;2023-07-31T17:30:31;1.75;;;1.65;;
19675;SDS011;39539;52.202;9.876;2023-07-31T17:32:56;1.67;;;1.58;;
19675;SDS011;39539;52.202;9.876;2023-07-31T17:35:22;3.10;;;1.73;;
19675;SDS011;39539;52.202;9.876;2023-07-31T17:37:48;2.20;;;2.05;;
19675;SDS011;39539;52.202;9.876;2023-07-31T17:40:14;1.90;;;1.80;;
19675;SDS011;39539;52.202;9.876;2023-07-31T17:45:26;2.15;;;1.98;;
19675;SDS011;39539;52.202;9.876;2023-07-31T17:47:53;2.40;;;2.30;;
19675;SDS011;39539;52.202;9.876;2023-07-31T17:50:18;2.10;;;1.90;;
19675;SDS011;39539;52.202;9.876;2023-07-31T17:52:49;2.35;;;1.92;;
19675;SDS011;39539;52.202;9.876;2023-07-31T17:55:28;2.63;;;2.42;;
19675;SDS011;39539;52.202;9.876;2023-07-31T17:57:57;2.38;;;2.28;;
19675;SDS011;39539;52.202;9.876;2023-07-31T18:00:32;2.30;;;2.20;;
19675;SDS011;39539;52.202;9.876;2023-07-31T18:03:12;2.35;;;1.90;;
19675;SDS011;39539;52.202;9.876;2023-07-31T18:05:53;2.20;;;2.10;;
19675;SDS011;39539;52.202;9.876;2023-07-31T18:08:18;2.58;;;2.10;;
19675;SDS011;39539;52.202;9.876;2023-07-31T18:10:44;2.00;;;1.90;;
19675;SDS011;39539;52.202;9.876;2023-07-31T18:13:11;2.25;;;2.15;;
19675;SDS011;39539;52.202;9.876;2023-07-31T18:15:37;2.05;;;1.95;;
19675;SDS011;39539;52.202;9.876;2023-07-31T18:18:02;2.35;;;2.25;;
19675;SDS011;39539;52.202;9.876;2023-07-31T18:20:28;2.20;;;2.05;;
19675;SDS011;39539;52.202;9.876;2023-07-31T18:22:53;2.10;;;2.00;;
19675;SDS011;39539;52.202;9.876;2023-07-31T18:25:20;2.28;;;1.85;;
19675;SDS011;39539;52.202;9.876;2023-07-31T18:27:54;2.53;;;2.10;;
19675;SDS011;39539;52.202;9.876;2023-07-31T18:30:38;2.22;;;2.10;;
19675;SDS011;39539;52.202;9.876;2023-07-31T18:33:06;2.50;;;2.30;;
19675;SDS011;39539;52.202;9.876;2023-07-31T18:38:20;2.30;;;2.10;;
19675;SDS011;39539;52.202;9.876;2023-07-31T18:40:47;2.40;;;2.17;;
19675;SDS011;39539;52.202;9.876;2023-07-31T18:43:27;2.35;;;2.25;;
19675;SDS011;39539;52.202;9.876;2023-07-31T18:45:53;2.63;;;2.45;;
19675;SDS011;39539;52.202;9.876;2023-07-31T18:48:18;2.15;;;2.05;;
19675;SDS011;39539;52.202;9.876;2023-07-31T18:50:43;2.33;;;2.10;;
19675;SDS011;39539;52.202;9.876;2023-07-31T18:53:09;2.60;;;2.40;;
19675;SDS011;39539;52.202;9.876;2023-07-31T18:55:35;2.60;;;2.40;;
19675;SDS011;39539;52.202;9.876;2023-07-31T18:58:05;3.03;;;2.83;;
19675;SDS011;39539;52.202;9.876;2023-07-31T19:00:31;2.83;;;2.63;;
19675;SDS011;39539;52.202;9.876;2023-07-31T19:02:56;2.70;;;2.50;;
19675;SDS011;39539;52.202;9.876;2023-07-31T19:05:21;3.53;;;2.72;;
19675;SDS011;39539;52.202;9.876;2023-07-31T19:07:48;2.53;;;2.35;;
19675;SDS011;39539;52.202;9.876;2023-07-31T19:10:13;2.47;;;2.35;;
19675;SDS011;39539;52.202;9.876;2023-07-31T19:12:40;2.72;;;2.53;;
19675;SDS011;39539;52.202;9.876;2023-07-31T19:15:06;2.45;;;2.35;;
19675;SDS011;39539;52.202;9.876;2023-07-31T19:17:31;2.75;;;2.55;;
19675;SDS011;39539;52.202;9.876;2023-07-31T19:19:57;2.83;;;2.63;;
19675;SDS011;39539;52.202;9.876;2023-07-31T19:22:22;2.75;;;2.55;;
19675;SDS011;39539;52.202;9.876;2023-07-31T19:24:47;4.05;;;2.83;;
19675;SDS011;39539;52.202;9.876;2023-07-31T19:27:16;3.00;;;2.80;;
19675;SDS011;39539;52.202;9.876;2023-07-31T19:29:41;2.75;;;2.55;;
19675;SDS011;39539;52.202;9.876;2023-07-31T19:32:08;2.90;;;2.70;;
19675;SDS011;39539;52.202;9.876;2023-07-31T19:34:33;2.80;;;2.60;;
19675;SDS011;39539;52.202;9.876;2023-07-31T19:36:58;3.10;;;2.90;;
19675;SDS011;39539;52.202;9.876;2023-07-31T19:39:24;3.28;;;2.95;;
19675;SDS011;39539;52.202;9.876;2023-07-31T19:41:49;3.42;;;3.22;;
19675;SDS011;39539;52.202;9.876;2023-07-31T19:44:14;3.22;;;3.03;;
19675;SDS011;39539;52.202;9.876;2023-07-31T19:46:40;3.53;;;3.28;;
19675;SDS011;39539;52.202;9.876;2023-07-31T19:49:05;3.78;;;3.45;;
19675;SDS011;39539;52.202;9.876;2023-07-31T19:51:30;4.68;;;3.75;;
19675;SDS011;39539;52.202;9.876;2023-07-31T19:53:56;3.92;;;3.58;;
19675;SDS011;39539;52.202;9.876;2023-07-31T19:56:21;4.68;;;3.88;;
19675;SDS011;39539;52.202;9.876;2023-07-31T19:58:46;4.00;;;3.70;;
19675;SDS011;39539;52.202;9.876;2023-07-31T20:01:12;3.95;;;3.50;;
19675;SDS011;39539;52.202;9.876;2023-07-31T20:03:37;3.90;;;3.40;;
19675;SDS011;39539;52.202;9.876;2023-07-31T20:06:02;4.10;;;3.72;;
19675;SDS011;39539;52.202;9.876;2023-07-31T20:08:28;3.78;;;3.53;;
19675;SDS011;39539;52.202;9.876;2023-07-31T20:10:53;4.57;;;4.20;;
19675;SDS011;39539;52.202;9.876;2023-07-31T20:13:19;4.20;;;3.78;;
19675;SDS011;39539;52.202;9.876;2023-07-31T20:15:44;4.35;;;3.95;;
19675;SDS011;39539;52.202;9.876;2023-07-31T20:18:09;4.35;;;3.95;;
19675;SDS011;39539;52.202;9.876;2023-07-31T20:20:35;4.07;;;3.78;;
19675;SDS011;39539;52.202;9.876;2023-07-31T20:23:00;4.00;;;3.75;;
19675;SDS011;39539;52.202;9.876;2023-07-31T20:25:25;6.53;;;3.80;;
19675;SDS011;39539;52.202;9.876;2023-07-31T20:27:51;4.15;;;3.85;;
19675;SDS011;39539;52.202;9.876;2023-07-31T20:30:16;4.07;;;3.78;;
19675;SDS011;39539;52.202;9.876;2023-07-31T20:32:41;4.15;;;3.85;;
19675;SDS011;39539;52.202;9.876;2023-07-31T20:35:07;4.32;;;4.03;;
19675;SDS011;39539;52.202;9.876;2023-07-31T20:37:32;4.20;;;3.90;;
19675;SDS011;39539;52.202;9.876;2023-07-31T20:39:58;4.43;;;4.03;;
19675;SDS011;39539;52.202;9.876;2023-07-31T20:42:25;7.10;;;4.22;;
19675;SDS011;39539;52.202;9.876;2023-07-31T20:44:51;4.95;;;4.50;;
19675;SDS011;39539;52.202;9.876;2023-07-31T20:47:17;4.13;;;3.92;;
19675;SDS011;39539;52.202;9.876;2023-07-31T20:49:42;4.63;;;4.22;;
19675;SDS011;39539;52.202;9.876;2023-07-31T20:52:07;4.85;;;4.45;;
19675;SDS011;39539;52.202;9.876;2023-07-31T20:54:33;4.15;;;3.78;;
19675;SDS011;39539;52.202;9.876;2023-07-31T20:56:59;4.10;;;3.70;;
19675;SDS011;39539;52.202;9.876;2023-07-31T20:59:24;4.22;;;3.92;;
19675;SDS011;39539;52.202;9.876;2023-07-31T21:01:49;4.15;;;3.85;;
19675;SDS011;39539;52.202;9.876;2023-07-31T21:04:14;4.18;;;3.88;;
19675;SDS011;39539;52.202;9.876;2023-07-31T21:06:40;3.80;;;3.42;;
19675;SDS011;39539;52.202;9.876;2023-07-31T21:09:05;3.53;;;3.22;;
19675;SDS011;39539;52.202;9.876;2023-07-31T21:11:31;5.45;;;3.85;;
19675;SDS011;39539;52.202;9.876;2023-07-31T21:13:57;3.95;;;3.17;;
19675;SDS011;39539;52.202;9.876;2023-07-31T21:16:23;3.35;;;3.10;;
19675;SDS011;39539;52.202;9.876;2023-07-31T21:18:49;3.88;;;3.50;;
19675;SDS011;39539;52.202;9.876;2023-07-31T21:21:15;3.85;;;3.55;;
19675;SDS011;39539;52.202;9.876;2023-07-31T21:23:41;5.25;;;3.05;;
19675;SDS011;39539;52.202;9.876;2023-07-31T21:26:07;3.63;;;3.33;;
19675;SDS011;39539;52.202;9.876;2023-07-31T21:28:32;3.97;;;3.45;;
19675;SDS011;39539;52.202;9.876;2023-07-31T21:30:58;3.13;;;2.92;;
19675;SDS011;39539;52.202;9.876;2023-07-31T21:33:24;3.50;;;3.22;;
19675;SDS011;39539;52.202;9.876;2023-07-31T21:35:50;3.72;;;3.30;;
19675;SDS011;39539;52.202;9.876;2023-07-31T21:38:15;3.45;;;3.15;;
19675;SDS011;39539;52.202;9.876;2023-07-31T21:40:41;3.00;;;2.78;;
19675;SDS011;39539;52.202;9.876;2023-07-31T21:43:06;3.03;;;2.83;;
19675;SDS011;39539;52.202;9.876;2023-07-31T21:45:32;3.35;;;3.15;;
19675;SDS011;39539;52.202;9.876;2023-07-31T21:47:57;2.92;;;2.63;;
19675;SDS011;39539;52.202;9.876;2023-07-31T21:50:23;2.78;;;2.58;;
19675;SDS011;39539;52.202;9.876;2023-07-31T21:52:48;2.88;;;2.67;;
19675;SDS011;39539;52.202;9.876;2023-07-31T21:55:14;2.60;;;2.22;;
19675;SDS011;39539;52.202;9.876;2023-07-31T21:57:40;2.63;;;2.42;;
19675;SDS011;39539;52.202;9.876;2023-07-31T22:00:06;2.80;;;2.28;;
19675;SDS011;39539;52.202;9.876;2023-07-31T22:02:32;2.42;;;2.22;;
19675;SDS011;39539;52.202;9.876;2023-07-31T22:04:57;3.78;;;2.30;;
19675;SDS011;39539;52.202;9.876;2023-07-31T22:07:22;2.60;;;2.40;;
19675;SDS011;39539;52.202;9.876;2023-07-31T22:09:47;3.88;;;2.30;;
19675;SDS011;39539;52.202;9.876;2023-07-31T22:12:13;2.20;;;1.90;;
19675;SDS011;39539;52.202;9.876;2023-07-31T22:14:38;4.10;;;2.05;;
19675;SDS011;39539;52.202;9.876;2023-07-31T22:17:04;2.22;;;2.03;;
19675;SDS011;39539;52.202;9.876;2023-07-31T22:19:29;2.97;;;1.90;;
19675;SDS011;39539;52.202;9.876;2023-07-31T22:21:54;1.85;;;1.75;;
19675;SDS011;39539;52.202;9.876;2023-07-31T22:24:21;2.00;;;1.85;;
19675;SDS011;39539;52.202;9.876;2023-07-31T22:26:48;2.50;;;1.90;;
19675;SDS011;39539;52.202;9.876;2023-07-31T22:29:13;3.33;;;1.88;;
19675;SDS011;39539;52.202;9.876;2023-07-31T22:31:38;1.80;;;1.70;;
19675;SDS011;39539;52.202;9.876;2023-07-31T22:34:04;2.05;;;1.85;;